Time;durP1;ratioP1;P1;durP2;ratioP2;P2;SDS_P1;SDS_P2;PMS_P1;PMS_P2;Temp;Humidity;BMP_temperature;BMP_pressure;BME280_temperature;BME280_humidity;BME280_pressure;Samples;Min_cycle;Max_cycle;Signal;HPM_P1;HPM_P2
2023/06/25 00:03:08;;;;;;;2.35;1.98;;;21.90;99.90;;;20.66;97.46;100245.53;12458079;23;96988;-93
2023/06/25 00:08:13;;;;;;;3.80;2.40;;;21.80;99.90;;;20.63;97.81;100254.09;12485905;23;96476;-96
2023/06/25 00:13:16;;;;;;;2.95;1.90;;;21.80;99.90;;;20.61;98.19;100261.59;12460852;23;96394;-94
2023/06/25 00:18:21;;;;;;;2.22;1.83;;;21.80;99.90;;;20.59;98.64;100253.75;12460356;23;96798;-95
2023/06/25 00:23:25;;;;;;;2.10;1.40;;;21.70;99.90;;;20.55;98.95;100253.38;12461734;23;96598;-96
2023/06/25 00:28:28;;;;;;;2.72;1.70;;;21.70;99.90;;;20.52;99.71;100253.84;12460791;23;96373;-94
2023/06/25 00:33:32;;;;;;;1.95;1.27;;;21.70;99.90;;;20.48;100.00;100255.38;12460035;23;96529;-93
2023/06/25 00:38:38;;;;;;;2.75;1.60;;;21.60;99.90;;;20.42;100.00;100255.44;12462354;23;96619;-94
2023/06/25 00:43:42;;;;;;;1.73;1.10;;;21.60;99.90;;;20.39;100.00;100251.34;12462507;23;96635;-95
2023/06/25 00:48:47;;;;;;;2.65;1.23;;;21.60;99.90;;;20.35;100.00;100242.03;12484017;23;96996;-95
2023/06/25 00:53:51;;;;;;;2.53;1.30;;;21.50;99.90;;;20.35;100.00;100249.31;12458419;23;96459;-95
2023/06/25 00:59:00;;;;;;;4.43;1.50;;;21.50;99.90;;;20.32;100.00;100243.31;12459537;23;97438;-95
2023/06/25 01:04:22;;;;;;;2.90;1.63;;;21.50;99.90;;;20.31;100.00;100249.75;12459143;23;96677;-94
2023/06/25 01:09:28;;;;;;;3.08;1.27;;;21.50;99.90;;;20.34;100.00;100247.69;12467362;23;96768;-94
2023/06/25 01:14:33;;;;;;;2.08;1.20;;;21.50;99.90;;;20.35;100.00;100252.84;12466740;23;97426;-95
2023/06/25 01:19:37;;;;;;;3.97;1.10;;;21.50;99.90;;;20.35;100.00;100254.72;12465436;23;96729;-94
2023/06/25 01:24:44;;;;;;;1.92;1.52;;;21.50;99.90;;;20.36;100.00;100249.09;12466346;23;96464;-93
2023/06/25 01:29:49;;;;;;;2.60;1.88;;;21.60;99.90;;;20.37;100.00;100242.63;12468319;23;96567;-93
2023/06/25 01:34:53;;;;;;;3.88;2.10;;;21.50;99.90;;;20.40;100.00;100235.97;12464971;23;97249;-93
2023/06/25 01:39:56;;;;;;;3.78;2.03;;;21.60;99.90;;;20.39;100.00;100245.09;12490602;23;96439;-93
2023/06/25 01:45:01;;;;;;;2.58;1.90;;;21.50;99.90;;;20.35;100.00;100225.03;12489894;23;96558;-93
2023/06/25 01:50:05;;;;;;;4.75;2.10;;;21.50;99.90;;;20.30;100.00;100223.84;12464385;23;97030;-93
2023/06/25 01:55:09;;;;;;;6.03;2.22;;;21.40;99.90;;;20.26;100.00;100225.34;12465573;23;96551;-95
2023/06/25 02:00:13;;;;;;;4.05;2.55;;;21.40;99.90;;;20.25;100.00;100214.78;12464755;23;96684;-93
2023/06/25 02:05:17;;;;;;;3.17;2.03;;;21.30;99.90;;;20.20;100.00;100210.06;12465778;23;97241;-95
2023/06/25 02:10:20;;;;;;;3.85;2.33;;;21.30;99.90;;;20.18;100.00;100212.19;12485163;23;96683;-94
2023/06/25 02:15:24;;;;;;;2.60;2.15;;;21.30;99.90;;;20.17;100.00;100217.84;12437429;23;96487;-96
2023/06/25 02:20:28;;;;;;;2.63;2.40;;;21.30;99.90;;;20.11;100.00;100219.56;12487521;23;96391;-94
2023/06/25 02:25:31;;;;;;;2.78;2.20;;;21.20;99.90;;;20.04;100.00;100227.75;12486577;23;97407;-95
2023/06/25 02:30:35;;;;;;;3.13;2.53;;;21.20;99.90;;;20.00;100.00;100236.53;12461072;23;96859;-94
2023/06/25 02:35:39;;;;;;;3.88;2.50;;;21.10;99.90;;;19.91;100.00;100230.66;12484308;23;96956;-94
2023/06/25 02:40:44;;;;;;;2.67;2.47;;;21.10;99.90;;;19.90;100.00;100231.66;12460714;23;96555;-94
2023/06/25 02:45:47;;;;;;;2.75;2.30;;;21.10;99.90;;;19.84;100.00;100223.69;12485721;23;96521;-95
2023/06/25 02:50:51;;;;;;;3.17;2.70;;;21.00;99.90;;;19.81;100.00;100227.66;12462036;23;96470;-94
2023/06/25 02:55:55;;;;;;;3.15;2.70;;;21.00;99.90;;;19.77;100.00;100229.97;12461817;23;96791;-94
2023/06/25 03:00:58;;;;;;;4.25;2.40;;;20.90;99.90;;;19.77;100.00;100229.16;12461124;23;96490;-95
2023/06/25 03:06:03;;;;;;;3.55;2.60;;;20.90;99.90;;;19.76;100.00;100232.91;12462248;23;96542;-94
2023/06/25 03:11:06;;;;;;;3.05;2.10;;;21.00;99.90;;;19.75;100.00;100233.97;12461524;23;96940;-94
2023/06/25 03:16:13;;;;;;;2.80;2.33;;;21.00;99.90;;;19.76;100.00;100233.72;12486469;23;96938;-94
2023/06/25 03:21:17;;;;;;;2.53;2.20;;;21.00;99.90;;;19.81;100.00;100229.53;12485871;23;96375;-95
2023/06/25 03:26:21;;;;;;;3.03;2.53;;;21.00;99.90;;;19.81;100.00;100224.97;12460347;23;96525;-94
2023/06/25 03:31:25;;;;;;;4.97;2.40;;;21.00;99.90;;;19.81;100.00;100241.16;12460201;23;96480;-94
2023/06/25 03:36:29;;;;;;;3.85;3.20;;;21.00;99.90;;;19.81;100.00;100241.16;12487930;23;96325;-95
2023/06/25 03:41:32;;;;;;;3.75;2.72;;;21.00;99.90;;;19.77;100.00;100239.94;12438182;23;96622;-95
2023/06/25 03:46:35;;;;;;;4.53;2.22;;;21.00;99.90;;;19.76;100.00;100244.50;12460549;23;96809;-95
2023/06/25 03:51:39;;;;;;;4.47;2.55;;;21.00;99.90;;;19.77;100.00;100242.63;12462427;23;96461;-95
2023/06/25 03:56:43;;;;;;;2.55;2.35;;;21.00;99.90;;;19.81;100.00;100241.16;12460929;23;97599;-96
2023/06/25 04:01:46;;;;;;;4.43;2.75;;;21.00;99.90;;;19.86;100.00;100243.16;12462317;23;96470;-96
2023/06/25 04:06:50;;;;;;;2.90;2.00;;;21.00;99.90;;;19.87;100.00;100242.94;12461805;23;96547;-96
2023/06/25 04:11:54;;;;;;;4.55;2.03;;;21.10;99.90;;;19.94;100.00;100250.94;12437085;23;96523;-95
2023/06/25 04:16:57;;;;;;;2.30;2.00;;;21.10;99.90;;;19.97;97.95;100247.75;12458791;23;97635;-94
2023/06/25 04:22:01;;;;;;;4.05;1.90;;;21.20;99.90;;;20.01;96.21;100244.38;12460679;23;97122;-96
2023/06/25 04:27:05;;;;;;;3.25;1.70;;;21.20;99.90;;;20.03;92.78;100245.00;12462147;23;97051;-96
2023/06/25 04:32:09;;;;;;;3.47;1.55;;;21.30;99.90;;;19.99;90.82;100243.81;12435493;23;96451;-95
2023/06/25 04:37:13;;;;;;;2.38;1.70;;;21.30;99.90;;;20.03;89.60;100250.41;12436938;23;96760;-95
2023/06/25 04:42:16;;;;;;;2.60;1.60;;;21.30;99.90;;;20.04;89.03;100246.63;12461154;23;96394;-94
2023/06/25 04:47:20;;;;;;;3.17;1.48;;;21.30;99.90;;;20.07;88.92;100239.94;12460089;23;96906;-93
2023/06/25 04:52:23;;;;;;;1.70;1.33;;;21.30;99.90;;;20.15;89.01;100242.34;12460706;23;96397;-94
2023/06/25 04:57:27;;;;;;;2.10;1.65;;;21.40;99.90;;;20.18;87.42;100236.47;12468604;23;97562;-93
2023/06/25 05:02:31;;;;;;;3.03;1.52;;;21.40;99.90;;;20.20;86.83;100245.16;12460196;23;96521;-94
2023/06/25 05:07:35;;;;;;;2.08;1.50;;;21.50;99.90;;;20.27;85.10;100247.75;12457825;23;97092;-92
2023/06/25 05:12:38;;;;;;;1.80;1.42;;;21.50;99.90;;;20.28;83.79;100244.03;12482788;23;96411;-92
2023/06/25 05:17:42;;;;;;;2.85;1.65;;;21.60;99.90;;;20.34;83.73;100251.19;12458583;23;97262;-92
2023/06/25 05:22:45;;;;;;;1.90;1.45;;;21.60;99.90;;;20.32;82.80;100256.81;12483993;23;96447;-92
2023/06/25 05:27:49;;;;;;;2.80;1.48;;;21.60;99.90;;;20.34;82.96;100262.00;12459504;23;96636;-93
2023/06/25 05:32:56;;;;;;;2.85;1.50;;;21.60;99.90;;;20.40;83.36;100260.25;12459564;23;96626;-92
2023/06/25 05:38:00;;;;;;;3.88;1.40;;;21.70;99.90;;;20.43;82.02;100257.91;12459599;23;96817;-92
2023/06/25 05:43:03;;;;;;;3.90;1.40;;;21.70;99.90;;;20.37;80.32;100256.13;12459637;23;96670;-92
2023/06/25 05:48:07;;;;;;;3.45;1.60;;;21.60;99.90;;;20.36;80.85;100259.88;12461650;23;97808;-92
2023/06/25 05:53:11;;;;;;;1.88;1.38;;;21.60;99.90;;;20.40;81.13;100255.69;12486310;23;96428;-92
2023/06/25 05:58:14;;;;;;;2.38;1.23;;;21.60;99.90;;;20.49;80.28;100262.41;12459339;23;96894;-92
2023/06/25 06:03:18;;;;;;;2.63;1.50;;;21.80;99.90;;;20.63;80.76;100262.19;12458525;23;96911;-92
2023/06/25 06:08:22;;;;;;;3.28;1.48;;;21.80;99.90;;;20.73;80.23;100265.97;12484761;23;96466;-91
2023/06/25 06:13:25;;;;;;;2.00;1.38;;;22.00;99.90;;;20.79;78.75;100248.84;12490670;23;97318;-90
2023/06/25 06:18:29;;;;;;;2.20;1.60;;;22.10;99.90;;;20.88;78.33;100259.31;12468630;23;96816;-91
2023/06/25 06:23:32;;;;;;;2.05;1.40;;;22.10;99.90;;;20.91;77.86;100253.41;12485027;23;96950;-90
2023/06/25 06:28:36;;;;;;;2.08;1.30;;;22.20;99.90;;;20.95;78.30;100262.72;12461100;23;96831;-91
2023/06/25 06:33:39;;;;;;;2.45;1.48;;;22.20;99.90;;;20.97;78.42;100264.09;12483001;23;96860;-90
2023/06/25 06:38:46;;;;;;;2.03;1.30;;;22.20;99.90;;;21.03;77.72;100263.16;12461673;23;96958;-91
2023/06/25 06:43:49;;;;;;;1.63;1.40;;;22.30;99.90;;;21.15;77.91;100262.34;12459897;23;96850;-91
2023/06/25 06:48:54;;;;;;;3.35;1.40;;;22.40;99.90;;;21.25;77.30;100257.19;12457669;23;97072;-90
2023/06/25 06:53:58;;;;;;;3.95;1.50;;;22.50;99.90;;;21.35;75.71;100260.13;12461926;23;96388;-91
2023/06/25 06:59:02;;;;;;;1.88;1.50;;;22.60;99.80;;;21.43;71.71;100262.47;12462228;23;97074;-92
2023/06/25 07:04:06;;;;;;;2.22;1.20;;;22.70;98.60;;;21.48;71.35;100270.69;12481367;23;97074;-89
2023/06/25 07:09:10;;;;;;;1.90;1.25;;;22.70;98.10;;;21.51;68.38;100267.50;12459812;23;96400;-92
2023/06/25 07:14:13;;;;;;;1.50;1.20;;;22.80;97.30;;;21.59;68.90;100269.00;12459367;23;96821;-92
2023/06/25 07:19:17;;;;;;;3.17;1.73;;;22.90;96.90;;;21.68;67.76;100254.06;12485955;23;96984;-93
2023/06/25 07:24:21;;;;;;;2.65;1.60;;;23.00;96.60;;;21.84;66.96;100266.03;12463618;23;96874;-90
2023/06/25 07:29:25;;;;;;;1.85;1.48;;;23.10;96.10;;;21.98;65.70;100258.44;12459340;23;96487;-91
2023/06/25 07:34:28;;;;;;;5.38;1.83;;;23.20;95.60;;;22.00;63.35;100250.91;12483286;23;96836;-89
2023/06/25 07:39:33;;;;;;;3.08;1.58;;;23.40;94.50;;;22.13;61.89;100256.03;12456734;23;97399;-96
2023/06/25 07:44:36;;;;;;;2.50;1.70;;;23.40;93.60;;;22.30;61.59;100250.66;12455055;23;96505;-89
2023/06/25 07:49:59;;;;;;;1.75;1.50;;;23.60;93.40;;;22.60;60.41;100248.47;12463731;23;96734;-92
2023/06/25 07:55:03;;;;;;;2.67;1.48;;;23.90;93.10;;;22.64;58.40;100249.66;12461181;23;96814;-91
2023/06/25 08:00:08;;;;;;;2.70;1.42;;;24.00;91.90;;;22.75;60.51;100249.81;12459151;23;96482;-91
2023/06/25 08:05:11;;;;;;;1.70;1.50;;;24.10;92.20;;;22.82;57.99;100261.31;12460926;23;96509;-91
2023/06/25 08:10:15;;;;;;;2.30;1.50;;;24.10;91.50;;;22.89;57.28;100251.97;12480750;23;96985;-90
2023/06/25 08:15:20;;;;;;;2.85;1.73;;;24.20;90.60;;;22.83;57.08;100243.97;12469968;23;96831;-91
2023/06/25 08:20:23;;;;;;;2.08;1.40;;;24.20;90.30;;;22.82;56.77;100247.75;12459679;23;96819;-92
2023/06/25 08:25:27;;;;;;;2.30;1.50;;;24.20;89.50;;;22.85;56.51;100245.38;12460574;23;97031;-88
2023/06/25 08:30:31;;;;;;;2.67;1.60;;;24.20;89.00;;;22.79;56.40;100246.38;12457545;23;96875;-93
2023/06/25 08:35:34;;;;;;;2.10;1.48;;;24.20;88.20;;;22.84;56.36;100232.88;12461012;23;96513;-92
2023/06/25 08:40:43;;;;;;;3.40;1.85;;;24.10;88.50;;;22.87;56.58;100235.16;12461009;23;96453;-89
2023/06/25 08:45:47;;;;;;;2.30;1.40;;;24.10;88.00;;;22.81;57.16;100241.53;12458329;23;96932;-92
2023/06/25 08:51:02;;;;;;;1.75;1.20;;;24.10;88.60;;;22.92;57.91;100237.94;12441725;23;96477;-90
2023/06/25 08:56:07;;;;;;;3.00;1.60;;;24.10;88.90;;;22.91;57.25;100232.75;12466472;23;96475;-93
2023/06/25 09:01:14;;;;;;;2.17;1.58;;;24.20;88.50;;;22.91;56.87;100222.75;12460404;23;96404;-90
2023/06/25 09:06:18;;;;;;;2.55;1.80;;;24.20;88.30;;;22.93;59.10;100225.19;12458993;23;96968;-91
2023/06/25 09:11:21;;;;;;;2.20;1.58;;;24.20;89.80;;;23.05;56.24;100227.81;12460209;23;96886;-93
2023/06/25 09:16:26;;;;;;;2.55;1.40;;;24.30;88.00;;;23.16;56.89;100221.47;12481789;23;96862;-91
2023/06/25 09:21:37;;;;;;;2.45;1.85;;;24.40;88.40;;;23.36;56.00;100212.78;12457111;23;96801;-92
2023/06/25 09:26:53;;;;;;;1.90;1.25;;;24.60;87.20;;;23.70;54.31;100203.47;12462563;23;96406;-93
2023/06/25 09:31:56;;;;;;;3.30;1.45;;;25.00;86.00;;;23.96;53.20;100201.84;12461456;23;96490;-90
2023/06/25 09:37:03;;;;;;;2.85;1.30;;;25.30;84.60;;;24.31;52.02;100195.09;12462028;23;96496;-94
2023/06/25 09:42:08;;;;;;;2.47;1.50;;;25.60;83.20;;;24.67;51.75;100187.28;12463303;23;96634;-90
2023/06/25 09:47:16;;;;;;;2.97;1.48;;;25.90;82.00;;;25.07;52.41;100189.47;12462385;23;97205;-91
2023/06/25 09:52:22;;;;;;;2.75;1.33;;;26.30;82.30;;;25.18;50.84;100177.53;12462039;23;96471;-90
2023/06/25 09:57:27;;;;;;;1.83;1.20;;;26.50;80.40;;;25.35;50.27;100171.91;12463282;23;96553;-89
2023/06/25 10:02:32;;;;;;;3.20;1.50;;;26.70;80.40;;;25.55;50.91;100162.97;12460880;23;96560;-89
2023/06/25 10:07:36;;;;;;;3.25;1.58;;;26.80;79.80;;;25.69;49.90;100153.25;12460382;23;96969;-90
2023/06/25 10:12:41;;;;;;;2.97;1.70;;;27.00;79.70;;;25.79;48.50;100153.31;12456622;23;97168;-89
2023/06/25 10:17:51;;;;;;;2.00;1.52;;;27.20;78.20;;;25.83;46.98;100162.53;12457748;23;96641;-92
2023/06/25 10:23:12;;;;;;;1.92;1.17;;;27.20;76.00;;;25.79;46.00;100164.19;12485731;23;97081;-93
2023/06/25 10:28:15;;;;;;;2.13;1.55;;;27.20;74.90;;;25.99;46.86;100162.56;12460340;23;96975;-92
2023/06/25 10:33:19;;;;;;;2.75;1.58;;;27.40;74.20;;;26.27;44.88;100156.59;12457444;23;96641;-92
2023/06/25 10:38:25;;;;;;;2.20;1.50;;;27.60;73.80;;;26.26;45.58;100157.66;12460288;23;96981;-96
2023/06/25 10:43:32;;;;;;;2.20;1.40;;;27.70;72.60;;;26.17;41.89;100153.06;12480871;23;96908;-96
2023/06/25 10:48:46;;;;;;;1.95;1.35;;;27.60;68.20;;;26.44;43.97;100155.53;12428816;23;96495;-95
2023/06/25 10:53:50;;;;;;;2.38;1.55;;;27.80;69.80;;;26.57;41.08;100146.78;12467795;23;96385;-94
2023/06/25 10:58:58;;;;;;;4.90;3.10;;;28.10;67.10;;;26.47;39.38;100157.72;12443707;23;96454;-96
2023/06/25 11:04:01;;;;;;;3.55;1.80;;;28.00;64.00;;;26.35;40.34;100158.78;12460194;23;96979;-94
2023/06/25 11:09:06;;;;;;;3.60;1.88;;;27.90;64.00;;;26.38;42.00;100150.03;12460747;23;96493;-94
2023/06/25 11:14:12;;;;;;;1.80;1.50;;;27.80;66.30;;;26.50;43.29;100157.16;12460792;23;96791;-90
2023/06/25 11:19:16;;;;;;;1.70;1.20;;;27.80;66.80;;;26.52;42.62;100142.19;12484754;23;96779;-93
2023/06/25 11:24:19;;;;;;;1.88;1.30;;;27.90;65.90;;;26.70;41.62;100134.53;12459553;23;96599;-94
2023/06/25 11:29:33;;;;;;;2.17;1.40;;;28.00;65.10;;;26.77;41.40;100140.50;12483445;23;96473;-92
2023/06/25 11:34:43;;;;;;;1.80;1.20;;;28.10;64.70;;;26.71;40.30;100142.41;12484297;23;96938;-90
2023/06/25 11:39:50;;;;;;;1.30;1.05;;;28.10;63.50;;;26.64;41.81;100139.16;12460967;23;96529;-90
2023/06/25 11:45:05;;;;;;;1.80;1.00;;;28.10;64.30;;;26.62;42.02;100124.97;12458906;23;96444;-90
2023/06/25 11:50:11;;;;;;;2.00;1.10;;;28.10;64.80;;;26.68;43.53;100127.41;12459286;23;96504;-91
2023/06/25 11:55:15;;;;;;;1.67;1.20;;;28.10;65.50;;;26.79;43.53;100117.31;12457949;23;96545;-90
2023/06/25 12:00:19;;;;;;;1.70;1.25;;;28.30;65.60;;;26.88;42.83;100112.94;12458462;23;96609;-91
2023/06/25 12:05:22;;;;;;;2.08;1.10;;;28.40;65.10;;;27.00;43.74;100103.63;12458362;23;96869;-91
2023/06/25 12:10:27;;;;;;;1.60;1.15;;;28.40;65.60;;;27.27;42.85;100105.97;12459737;23;97606;-90
2023/06/25 12:15:30;;;;;;;3.88;1.50;;;28.90;65.60;;;27.68;42.62;100106.53;12483318;23;98325;-91
2023/06/25 12:20:34;;;;;;;1.70;1.20;;;29.50;65.00;;;27.75;41.05;100098.88;12459166;23;97005;-90
2023/06/25 12:25:39;;;;;;;2.10;1.25;;;29.80;63.30;;;27.90;42.40;100093.31;12482739;23;96885;-88
2023/06/25 12:30:43;;;;;;;2.13;1.27;;;29.90;64.10;;;28.15;41.43;100096.94;12484066;23;96436;-89
2023/06/25 12:35:47;;;;;;;2.30;1.35;;;30.70;62.70;;;28.46;40.09;100095.56;12458717;23;96515;-89
2023/06/25 12:40:56;;;;;;;1.58;1.48;;;31.20;60.90;;;29.12;40.74;100079.53;12458913;23;96453;-89
2023/06/25 12:46:00;;;;;;;2.25;1.40;;;31.80;61.00;;;29.82;39.01;100083.19;12479656;23;96978;-88
2023/06/25 12:51:04;;;;;;;1.63;1.13;;;32.50;60.30;;;30.74;39.21;100070.59;12483780;23;96399;-88
2023/06/25 12:56:07;;;;;;;2.25;1.33;;;32.90;61.20;;;31.40;37.10;100060.97;12460569;23;96511;-89
2023/06/25 13:01:13;;;;;;;1.50;1.00;;;33.00;59.70;;;31.70;36.40;100064.91;12458601;23;96759;-89
2023/06/25 13:06:20;;;;;;;3.63;1.10;;;33.00;58.70;;;31.75;35.48;100057.69;12460680;23;96984;-87
2023/06/25 13:11:23;;;;;;;1.40;1.20;;;33.10;57.40;;;31.56;34.92;100050.44;12459902;23;96595;-88
2023/06/25 13:16:27;;;;;;;6.43;1.50;;;33.20;57.20;;;31.26;36.32;100048.41;12459608;23;97577;-89
2023/06/25 13:21:31;;;;;;;2.25;1.10;;;33.10;56.50;;;31.14;37.27;100048.91;12460476;23;96950;-88
2023/06/25 13:26:35;;;;;;;1.42;1.10;;;33.00;57.20;;;30.90;36.36;100040.94;12484517;23;96596;-88
2023/06/25 13:31:38;;;;;;;2.10;1.10;;;33.00;56.50;;;30.47;36.45;100037.66;12456911;23;96652;-89
2023/06/25 13:36:42;;;;;;;1.42;1.10;;;32.40;56.20;;;29.94;36.84;100041.63;12480127;23;96971;-87
2023/06/25 13:41:46;;;;;;;1.70;1.25;;;31.70;57.10;;;29.53;36.97;100034.06;12458853;23;96833;-89
2023/06/25 13:46:50;;;;;;;1.75;1.30;;;31.20;56.70;;;29.10;38.48;100032.50;12459119;23;96430;-89
2023/06/25 13:51:54;;;;;;;3.17;1.33;;;30.60;57.30;;;28.75;40.19;100020.88;12458510;23;96425;-87
2023/06/25 13:56:57;;;;;;;1.27;1.02;;;30.10;58.80;;;28.74;39.60;100019.25;12459253;23;96447;-89
2023/06/25 14:02:01;;;;;;;1.60;1.23;;;29.90;59.00;;;28.67;39.55;100014.16;12435423;23;96658;-90
2023/06/25 14:07:05;;;;;;;1.92;1.25;;;29.80;59.30;;;28.84;40.89;100007.38;12460549;23;96950;-92
2023/06/25 14:12:08;;;;;;;1.63;1.27;;;29.80;60.00;;;29.11;40.94;100007.56;12458948;23;96580;-93
2023/06/25 14:17:13;;;;;;;1.10;1.00;;;30.10;61.40;;;29.41;40.86;100011.78;12460128;23;96979;-91
2023/06/25 14:22:16;;;;;;;1.48;1.20;;;30.40;61.20;;;29.64;40.96;100001.88;12459826;23;96567;-91
2023/06/25 14:27:20;;;;;;;2.50;1.27;;;30.50;61.40;;;29.84;40.89;100003.44;12458572;23;96825;-90
2023/06/25 14:32:23;;;;;;;1.48;1.20;;;30.80;61.50;;;30.10;39.92;100001.88;12457421;23;96955;-90
2023/06/25 14:37:27;;;;;;;2.13;1.05;;;31.20;60.90;;;30.36;39.57;99998.69;12461461;23;97354;-86
2023/06/25 14:42:31;;;;;;;2.28;0.90;;;31.60;60.20;;;30.44;39.39;99989.72;12486068;23;96452;-87
2023/06/25 14:47:37;;;;;;;1.85;1.30;;;31.80;59.20;;;30.60;36.78;99985.56;12458730;23;97471;-86
2023/06/25 14:52:41;;;;;;;1.40;1.17;;;32.10;58.20;;;30.81;37.67;99993.38;12484563;23;96942;-84
2023/06/25 14:57:44;;;;;;;1.65;1.30;;;32.50;58.20;;;30.82;37.53;99984.84;12485032;23;96539;-83
2023/06/25 15:02:48;;;;;;;1.63;1.25;;;32.60;57.30;;;31.15;36.09;99984.66;12481381;23;97035;-84
2023/06/25 15:07:52;;;;;;;1.52;1.20;;;32.80;56.60;;;31.36;36.02;99982.28;12457885;23;97160;-85
2023/06/25 15:12:55;;;;;;;1.30;1.10;;;32.80;56.30;;;31.26;35.97;99980.59;12459464;23;96884;-84
2023/06/25 15:18:00;;;;;;;1.60;1.20;;;32.50;56.00;;;31.23;36.23;99972.94;12457890;23;96516;-83
2023/06/25 15:23:03;;;;;;;1.73;1.33;;;32.30;56.50;;;31.33;35.72;99975.47;12480800;23;96878;-86
2023/06/25 15:28:07;;;;;;;1.83;1.40;;;32.60;56.30;;;31.47;35.89;99964.44;12461109;23;97513;-85
2023/06/25 15:33:10;;;;;;;1.35;1.05;;;33.00;56.10;;;31.86;34.21;99968.44;12459473;23;96697;-87
2023/06/25 15:38:14;;;;;;;2.03;1.40;;;33.60;54.80;;;32.01;33.53;99958.94;12479065;23;96933;-86
2023/06/25 15:43:18;;;;;;;1.85;1.40;;;34.00;53.80;;;32.18;34.72;99962.56;12460580;23;96510;-86
2023/06/25 15:48:22;;;;;;;2.75;1.52;;;34.30;54.20;;;32.56;33.87;99961.25;12460139;23;96881;-87
2023/06/25 15:53:26;;;;;;;2.30;1.50;;;34.50;54.10;;;32.26;34.34;99949.97;12487402;23;96634;-87
2023/06/25 15:58:29;;;;;;;1.92;1.67;;;34.00;53.90;;;32.12;33.61;99947.34;12486428;23;96471;-87
2023/06/25 16:03:33;;;;;;;1.85;1.60;;;33.80;53.20;;;31.89;33.15;99945.81;12460986;23;96498;-87
2023/06/25 16:08:37;;;;;;;2.22;1.27;;;33.40;52.80;;;31.92;33.27;99943.25;12460874;23;97686;-87
2023/06/25 16:13:42;;;;;;;2.00;1.58;;;33.40;52.90;;;31.75;33.47;99950.56;12460821;23;96886;-85
2023/06/25 16:18:46;;;;;;;3.05;1.60;;;33.10;53.20;;;31.52;34.86;99945.09;12486695;23;96966;-87
2023/06/25 16:23:50;;;;;;;1.67;1.20;;;32.70;54.20;;;31.36;35.31;99943.84;12461479;23;96436;-87
2023/06/25 16:28:54;;;;;;;1.55;1.40;;;32.30;54.90;;;30.81;35.99;99949.50;12462252;23;96499;-87
2023/06/25 16:33:58;;;;;;;1.70;1.40;;;31.70;55.30;;;30.38;37.03;99936.13;12485947;23;96411;-86
2023/06/25 16:39:01;;;;;;;1.77;1.48;;;31.20;56.10;;;30.04;37.08;99940.03;12486652;23;96765;-87
2023/06/25 16:44:05;;;;;;;2.20;1.63;;;30.90;56.40;;;29.56;38.53;99932.16;12486738;23;96431;-87
2023/06/25 16:49:09;;;;;;;5.05;1.70;;;30.50;57.70;;;29.46;39.33;99929.59;12460854;23;96474;-87
2023/06/25 16:54:13;;;;;;;2.10;1.35;;;30.30;58.00;;;29.47;38.46;99933.13;12459913;23;97086;-87
2023/06/25 16:59:16;;;;;;;1.65;1.27;;;30.50;57.70;;;29.48;39.36;99932.81;12458543;23;97118;-87
2023/06/25 17:04:20;;;;;;;2.53;1.70;;;30.50;58.00;;;29.53;38.83;99934.69;12456011;23;97156;-87
2023/06/25 17:09:23;;;;;;;2.38;1.63;;;30.50;57.60;;;29.65;38.42;99931.50;12483150;23;96897;-88
2023/06/25 17:14:27;;;;;;;3.03;1.60;;;30.70;57.60;;;29.56;38.87;99940.38;12458323;23;96672;-87
2023/06/25 17:19:31;;;;;;;2.13;1.50;;;30.60;57.50;;;29.39;38.75;99942.00;12458548;23;96424;-88
2023/06/25 17:24:35;;;;;;;3.72;1.63;;;30.50;57.80;;;29.16;39.48;99935.56;12484702;23;97094;-88
2023/06/25 17:29:38;;;;;;;2.65;1.80;;;30.30;58.00;;;28.80;39.74;99936.88;12456268;23;96553;-89
2023/06/25 17:34:41;;;;;;;2.60;1.40;;;30.00;58.30;;;28.37;40.94;99941.53;12457704;23;97234;-88
2023/06/25 17:39:45;;;;;;;1.70;1.38;;;29.50;59.00;;;27.86;43.09;99949.44;12485497;23;96540;-88
2023/06/25 17:44:49;;;;;;;10.90;1.88;;;29.00;60.60;;;27.43;44.93;99952.81;12484926;23;96831;-88
2023/06/25 17:49:53;;;;;;;2.05;1.63;;;28.60;62.20;;;27.11;45.84;99956.06;12458645;23;96652;-88
2023/06/25 17:54:56;;;;;;;2.53;1.48;;;28.20;63.20;;;26.72;47.09;99953.25;12461660;23;96758;-88
2023/06/25 18:00:01;;;;;;;2.50;1.60;;;27.90;64.20;;;26.36;48.53;99945.19;12486690;23;96454;-89
2023/06/25 18:05:06;;;;;;;2.75;2.10;;;27.50;65.30;;;26.10;49.57;99957.28;12462300;23;96658;-89
2023/06/25 18:10:10;;;;;;;3.05;1.73;;;27.20;66.30;;;25.81;50.57;99959.78;12486937;23;96527;-89
2023/06/25 18:15:18;;;;;;;2.53;2.00;;;26.90;67.90;;;25.54;52.24;99954.56;12463311;23;96599;-89
2023/06/25 18:20:21;;;;;;;3.47;1.80;;;26.70;68.50;;;25.21;53.50;99964.09;12463116;23;96420;-89
2023/06/25 18:25:25;;;;;;;3.85;1.92;;;26.40;69.40;;;24.93;54.23;99958.03;12461659;23;96769;-89
2023/06/25 18:30:28;;;;;;;2.33;1.65;;;26.10;70.40;;;24.73;54.72;99964.22;12484179;23;96518;-88
2023/06/25 18:35:34;;;;;;;4.80;1.92;;;25.80;70.60;;;24.59;54.57;99954.94;12484844;23;96777;-88
2023/06/25 18:40:38;;;;;;;2.65;1.75;;;25.70;70.80;;;24.39;54.84;99952.13;12458667;23;96959;-88
2023/06/25 18:45:43;;;;;;;2.17;1.70;;;25.40;70.90;;;24.18;55.08;99954.72;12459082;23;96496;-87
2023/06/25 18:50:46;;;;;;;4.57;2.30;;;25.20;71.10;;;23.95;55.26;99960.56;12482407;23;96754;-87
2023/06/25 18:55:51;;;;;;;3.85;2.72;;;24.90;71.40;;;23.65;56.42;99959.28;12437287;23;96729;-87
2023/06/25 19:00:55;;;;;;;4.88;2.97;;;24.60;72.40;;;23.39;57.16;99976.34;12460090;23;96814;-90
2023/06/25 19:06:01;;;;;;;3.40;2.75;;;24.40;73.30;;;23.15;58.17;99975.84;12459038;23;96538;-87
2023/06/25 19:11:04;;;;;;;4.90;3.30;;;24.10;74.00;;;22.93;58.78;99978.63;12460732;23;97125;-88
2023/06/25 19:16:09;;;;;;;4.07;2.83;;;23.90;74.70;;;22.74;59.22;99977.31;12461833;23;96482;-87
2023/06/25 19:21:13;;;;;;;5.50;3.08;;;23.70;75.10;;;22.56;59.21;99983.84;12460269;23;96875;-88
2023/06/25 19:26:17;;;;;;;3.03;2.60;;;23.60;75.30;;;22.43;58.86;99982.31;12455538;23;96822;-88
2023/06/25 19:31:20;;;;;;;3.50;3.10;;;23.40;75.30;;;22.31;59.02;99979.75;12454960;23;97006;-88
2023/06/25 19:36:24;;;;;;;3.70;3.28;;;23.30;75.30;;;22.23;59.54;99987.47;12456421;23;96848;-87
2023/06/25 19:41:28;;;;;;;3.88;3.40;;;23.20;75.70;;;22.05;60.08;99992.06;12454945;23;96882;-88
2023/06/25 19:46:31;;;;;;;6.13;3.60;;;23.10;76.10;;;21.90;60.34;99994.56;12458450;23;97002;-87
2023/06/25 19:51:37;;;;;;;7.28;3.72;;;22.90;76.50;;;21.75;60.65;99991.59;12460245;23;96907;-87
2023/06/25 19:56:41;;;;;;;5.18;3.80;;;22.70;77.20;;;21.60;60.83;99995.69;12453911;23;97103;-88
2023/06/25 20:01:45;;;;;;;5.80;3.70;;;22.60;77.00;;;21.48;61.52;99986.84;12456156;23;96783;-87
2023/06/25 20:06:49;;;;;;;6.18;3.95;;;22.50;77.30;;;21.46;62.49;99986.25;12461319;23;96854;-89
2023/06/25 20:11:52;;;;;;;7.72;4.50;;;22.50;77.70;;;21.45;63.79;99990.00;12456229;23;96874;-88
2023/06/25 20:16:56;;;;;;;6.32;4.22;;;22.50;78.20;;;21.41;64.86;99988.88;12460170;23;96501;-88
2023/06/25 20:22:01;;;;;;;5.68;3.97;;;22.50;78.90;;;21.34;65.61;99986.31;12436055;23;97041;-88
2023/06/25 20:27:05;;;;;;;4.35;3.50;;;22.40;79.60;;;21.25;66.57;99987.75;12459771;23;96739;-88
2023/06/25 20:32:09;;;;;;;5.57;4.25;;;22.30;80.20;;;21.11;67.30;99986.41;12459171;23;96514;-88
2023/06/25 20:37:13;;;;;;;7.35;4.47;;;22.20;80.80;;;20.98;65.27;99984.81;12458489;23;96925;-86
2023/06/25 20:42:16;;;;;;;5.97;5.05;;;22.00;80.20;;;21.07;61.38;99985.25;12435466;23;96403;-87
2023/06/25 20:47:20;;;;;;;6.47;5.00;;;22.10;78.10;;;21.26;59.96;99983.16;12458732;23;96452;-87
2023/06/25 20:52:24;;;;;;;4.95;4.40;;;22.20;77.20;;;21.42;59.44;99992.41;12454200;23;97003;-88
2023/06/25 20:57:28;;;;;;;7.22;4.20;;;22.40;76.70;;;21.48;62.33;99997.66;12455393;23;96949;-86